createdAt,value
2017-07-20T00:01:17.275Z,45.50
2017-07-20T00:03:44.855Z,45.00
2017-07-20T00:06:13.184Z,44.80
2017-07-20T00:08:40.772Z,44.70
2017-07-20T00:11:08.334Z,44.10
2017-07-20T00:13:35.902Z,44.50
2017-07-20T00:16:03.491Z,44.20
2017-07-20T00:18:31.054Z,44.10
2017-07-20T00:20:58.641Z,44.50
2017-07-20T00:23:26.212Z,44.50
2017-07-20T00:25:53.814Z,44.50
2017-07-20T00:28:21.375Z,45.20
2017-07-20T00:30:49.730Z,44.60
2017-07-20T00:33:17.288Z,44.50
2017-07-20T00:35:44.882Z,44.40
2017-07-20T00:38:13.213Z,44.90
2017-07-20T00:40:40.764Z,44.90
2017-07-20T00:43:08.390Z,44.90
2017-07-20T00:45:35.958Z,44.90
2017-07-20T00:48:03.553Z,44.80
2017-07-20T00:50:31.122Z,44.80
2017-07-20T00:52:58.701Z,44.90
2017-07-20T00:55:27.036Z,44.80
2017-07-20T00:57:54.614Z,44.80
2017-07-20T01:00:22.163Z,44.60
2017-07-20T01:02:49.743Z,44.20
2017-07-20T01:05:17.304Z,44.00
2017-07-20T01:07:44.867Z,43.40
2017-07-20T01:10:12.456Z,43.10
2017-07-20T01:12:40.024Z,42.70
2017-07-20T01:15:07.608Z,42.40
2017-07-20T01:17:35.175Z,42.10
2017-07-20T01:20:02.759Z,42.10
2017-07-20T01:22:30.314Z,42.30
2017-07-20T01:24:57.912Z,42.40
2017-07-20T01:27:25.471Z,42.40
2017-07-20T01:29:53.062Z,43.30
2017-07-20T01:32:20.627Z,44.50
2017-07-20T01:34:48.187Z,46.00
2017-07-20T01:37:15.767Z,47.60
2017-07-20T01:39:43.323Z,48.40
2017-07-20T01:42:11.245Z,49.40
2017-07-20T01:44:38.820Z,49.40
2017-07-20T01:47:06.692Z,50.30
2017-07-20T01:49:34.257Z,51.40
2017-07-20T01:52:01.838Z,52.00
2017-07-20T01:54:29.401Z,52.70
2017-07-20T01:56:56.978Z,53.40
2017-07-20T01:59:25.298Z,54.10
2017-07-20T02:01:52.902Z,54.00
2017-07-20T02:04:20.465Z,54.50
2017-07-20T02:06:48.092Z,55.20
2017-07-20T02:09:16.375Z,55.70
2017-07-20T02:11:43.951Z,56.00
2017-07-20T02:14:11.549Z,56.60
2017-07-20T02:16:39.103Z,57.40
2017-07-20T02:19:07.455Z,58.60
2017-07-20T02:21:35.013Z,58.60
2017-07-20T02:24:02.598Z,59.60
2017-07-20T02:26:30.159Z,60.50
2017-07-20T02:28:57.765Z,61.50
2017-07-20T02:31:25.339Z,62.10
2017-07-20T02:33:52.919Z,62.80
2017-07-20T02:36:20.543Z,63.50
2017-07-20T02:38:48.104Z,64.00
2017-07-20T02:41:15.646Z,64.10
2017-07-20T02:43:43.204Z,64.60
2017-07-20T02:46:10.761Z,65.00
2017-07-20T02:48:38.277Z,64.80
2017-07-20T02:51:05.805Z,65.20
2017-07-20T02:53:33.312Z,65.70
2017-07-20T02:56:00.899Z,65.90
2017-07-20T02:58:28.418Z,66.10
2017-07-20T03:00:55.956Z,66.80
2017-07-20T03:03:23.474Z,66.60
2017-07-20T03:05:51.025Z,66.50
2017-07-20T03:08:18.560Z,65.90
2017-07-20T03:10:46.841Z,66.10
2017-07-20T03:13:14.399Z,66.10
2017-07-20T03:15:42.684Z,66.30
2017-07-20T03:18:10.228Z,66.30
2017-07-20T03:20:38.528Z,67.20
2017-07-20T03:23:06.081Z,66.40
2017-07-20T03:25:33.592Z,66.30
2017-07-20T03:28:01.133Z,66.10
2017-07-20T03:30:28.670Z,65.90
2017-07-20T03:32:56.195Z,66.20
2017-07-20T03:35:24.517Z,67.30
2017-07-20T03:37:52.041Z,66.70
2017-07-20T03:40:20.354Z,66.50
2017-07-20T03:42:47.875Z,66.50
2017-07-20T03:45:16.196Z,66.70
2017-07-20T03:47:43.721Z,66.70
2017-07-20T03:50:11.257Z,66.70
2017-07-20T03:52:39.532Z,65.30
2017-07-20T03:55:07.854Z,65.20
2017-07-20T03:57:35.392Z,65.20
2017-07-20T04:00:02.917Z,64.80
2017-07-20T04:02:30.468Z,65.00
2017-07-20T04:04:57.987Z,64.80
2017-07-20T04:07:25.544Z,63.70
2017-07-20T04:09:53.078Z,62.50
2017-07-20T04:12:20.621Z,63.00
2017-07-20T04:14:48.913Z,61.70
2017-07-20T04:17:16.454Z,61.70
2017-07-20T04:19:44.753Z,60.70
2017-07-20T04:22:12.266Z,60.70
2017-07-20T04:24:39.820Z,60.30
2017-07-20T04:27:07.605Z,59.60
2017-07-20T04:29:35.140Z,59.00
2017-07-20T04:32:02.665Z,59.20
2017-07-20T04:34:30.240Z,58.40
2017-07-20T04:36:57.769Z,58.40
2017-07-20T04:39:25.321Z,58.60
2017-07-20T04:41:53.604Z,55.70
2017-07-20T04:44:24.852Z,55.70
2017-07-20T04:46:53.305Z,48.50
2017-07-20T04:49:20.825Z,39.90
2017-07-20T04:51:48.389Z,34.20
2017-07-20T04:54:15.908Z,31.40
2017-07-20T04:56:44.205Z,28.00
2017-07-20T04:59:11.732Z,28.00
2017-07-20T05:01:39.263Z,26.60
2017-07-20T05:04:06.793Z,25.70
2017-07-20T05:06:34.321Z,24.70
2017-07-20T05:09:01.831Z,23.40
2017-07-20T05:11:29.353Z,26.60
2017-07-20T05:13:56.889Z,30.70
2017-07-20T05:16:25.210Z,26.30
2017-07-20T05:18:52.774Z,26.20
2017-07-20T05:21:20.290Z,23.80
2017-07-20T05:23:47.825Z,24.30
2017-07-20T05:26:16.105Z,29.10
2017-07-20T05:28:43.647Z,29.00
2017-07-20T05:31:11.155Z,35.10
2017-07-20T05:33:38.710Z,39.10
2017-07-20T05:36:06.241Z,38.20
2017-07-20T05:38:34.517Z,32.10
2017-07-20T05:41:02.823Z,34.80
2017-07-20T05:43:30.341Z,34.80
2017-07-20T05:45:57.882Z,34.30
2017-07-20T05:48:25.393Z,26.70
2017-07-20T05:50:52.954Z,22.00
2017-07-20T05:53:20.494Z,18.10
2017-07-20T05:55:48.039Z,16.80
2017-07-20T05:58:15.561Z,16.00
2017-07-20T06:00:43.091Z,15.40
2017-07-20T06:03:10.623Z,14.80
2017-07-20T06:05:38.178Z,14.40
2017-07-20T06:08:06.486Z,13.60
2017-07-20T06:10:34.000Z,13.20
2017-07-20T06:13:01.542Z,13.60
2017-07-20T06:15:29.058Z,13.90
2017-07-20T06:17:56.614Z,14.60
2017-07-20T06:20:24.131Z,13.90
2017-07-20T06:22:51.678Z,14.00
2017-07-20T06:25:19.202Z,14.30
2017-07-20T06:27:46.741Z,14.30
2017-07-20T06:30:14.253Z,13.50
2017-07-20T06:32:41.829Z,13.80
2017-07-20T06:35:09.349Z,12.90
2017-07-20T06:37:36.862Z,13.00
2017-07-20T06:40:05.160Z,11.70
2017-07-20T06:42:32.696Z,11.60
2017-07-20T06:45:00.233Z,11.30
2017-07-20T06:47:27.745Z,10.80
2017-07-20T06:49:55.266Z,10.70
2017-07-20T06:52:22.809Z,11.80
2017-07-20T06:54:50.334Z,12.60
2017-07-20T06:57:17.875Z,13.50
2017-07-20T06:59:45.397Z,14.90
2017-07-20T07:02:12.945Z,16.50
2017-07-20T07:04:40.462Z,17.80
2017-07-20T07:07:08.004Z,19.10
2017-07-20T07:09:35.537Z,19.50
2017-07-20T07:12:03.860Z,20.60
2017-07-20T07:14:31.385Z,20.50
2017-07-20T07:16:58.925Z,20.90
2017-07-20T07:19:27.217Z,21.00
2017-07-20T07:21:55.498Z,20.80
2017-07-20T07:24:23.029Z,20.80
2017-07-20T07:26:50.572Z,21.80
2017-07-20T07:29:18.107Z,21.70
2017-07-20T07:31:45.621Z,22.00
2017-07-20T07:34:13.933Z,21.60
2017-07-20T07:36:41.444Z,21.50
2017-07-20T07:39:08.978Z,21.40
2017-07-20T07:41:36.494Z,21.20
2017-07-20T07:44:04.058Z,20.80
2017-07-20T07:46:31.588Z,20.50
2017-07-20T07:48:59.878Z,20.30
2017-07-20T07:51:28.184Z,19.60
2017-07-20T07:53:55.701Z,19.60
2017-07-20T07:56:24.002Z,19.80
2017-07-20T07:58:51.546Z,19.80
2017-07-20T08:01:19.841Z,19.30
2017-07-20T08:03:47.357Z,19.30
2017-07-20T08:06:15.029Z,18.80
2017-07-20T08:08:43.348Z,19.00
2017-07-20T08:11:10.878Z,19.00
2017-07-20T08:13:39.165Z,19.30
2017-07-20T08:16:06.705Z,19.20
2017-07-20T08:18:34.986Z,18.80
2017-07-20T08:21:03.266Z,19.40
2017-07-20T08:23:30.836Z,19.40
2017-07-20T08:25:58.373Z,18.60
2017-07-20T08:28:26.680Z,18.30
2017-07-20T08:30:54.197Z,18.30
2017-07-20T08:33:21.729Z,18.20
2017-07-20T08:35:49.244Z,17.90
2017-07-20T08:38:16.857Z,17.70
2017-07-20T08:40:44.433Z,17.50
2017-07-20T08:43:11.993Z,17.40
2017-07-20T08:45:39.496Z,17.00
2017-07-20T08:48:07.014Z,17.10
2017-07-20T08:50:35.329Z,17.40
2017-07-20T08:53:02.849Z,16.90
2017-07-20T08:55:30.370Z,17.50
2017-07-20T08:57:57.918Z,17.10
2017-07-20T09:00:25.429Z,17.00
2017-07-20T09:02:53.758Z,17.20
2017-07-20T09:05:21.288Z,17.10
2017-07-20T09:07:48.817Z,16.10
2017-07-20T09:10:17.135Z,18.00
2017-07-20T09:12:44.652Z,17.30
2017-07-20T09:15:12.174Z,16.50
2017-07-20T09:17:39.708Z,17.00
2017-07-20T09:20:07.221Z,17.40
2017-07-20T09:22:34.752Z,17.30
2017-07-20T09:25:02.265Z,17.50
2017-07-20T09:27:29.776Z,16.10
2017-07-20T09:29:57.411Z,15.40
2017-07-20T09:32:24.925Z,14.90
2017-07-20T09:34:53.225Z,15.30
2017-07-20T09:37:20.772Z,15.30
2017-07-20T09:39:49.113Z,15.50
2017-07-20T09:42:16.619Z,15.40
2017-07-20T09:44:44.148Z,14.70
2017-07-20T09:47:12.455Z,16.70
2017-07-20T09:49:39.999Z,16.30
2017-07-20T09:52:07.517Z,16.30
2017-07-20T09:54:35.026Z,16.60
2017-07-20T09:57:02.566Z,15.70
2017-07-20T09:59:30.088Z,15.40
2017-07-20T10:01:57.657Z,14.90
2017-07-20T10:04:25.182Z,15.60
2017-07-20T10:06:52.714Z,14.70
2017-07-20T10:09:20.228Z,14.70
2017-07-20T10:11:47.773Z,15.90
2017-07-20T10:14:15.300Z,16.90
2017-07-20T10:16:42.870Z,17.00
2017-07-20T10:19:10.382Z,17.20
2017-07-20T10:21:41.189Z,16.00
2017-07-20T10:24:08.720Z,16.30
2017-07-20T10:26:36.412Z,16.10
2017-07-20T10:29:03.956Z,15.40
2017-07-20T10:31:31.471Z,15.80
2017-07-20T10:33:59.785Z,15.90
2017-07-20T10:36:27.293Z,15.90
2017-07-20T10:38:55.593Z,15.40
2017-07-20T10:41:23.904Z,16.30
2017-07-20T10:43:51.422Z,16.30
2017-07-20T10:46:19.717Z,15.90
2017-07-20T10:48:47.239Z,15.90
2017-07-20T10:51:14.765Z,15.90
2017-07-20T10:53:42.273Z,16.70
2017-07-20T10:56:10.575Z,15.70
2017-07-20T10:58:38.100Z,15.70
2017-07-20T11:01:06.406Z,15.70
2017-07-20T11:03:33.930Z,15.70
2017-07-20T11:06:01.714Z,15.10
2017-07-20T11:08:29.228Z,14.50
2017-07-20T11:10:56.741Z,13.50
2017-07-20T11:13:24.294Z,13.90
2017-07-20T11:15:51.816Z,14.80
2017-07-20T11:18:19.352Z,15.10
2017-07-20T11:20:46.873Z,15.80
2017-07-20T11:23:14.408Z,15.50
2017-07-20T11:25:42.720Z,15.50
2017-07-20T11:28:11.115Z,15.30
2017-07-20T11:30:38.641Z,16.90
2017-07-20T11:33:06.223Z,16.80
2017-07-20T11:35:33.734Z,17.10
2017-07-20T11:38:02.024Z,19.00
2017-07-20T11:40:29.564Z,18.90
2017-07-20T11:42:57.077Z,18.70
2017-07-20T11:45:24.620Z,18.50
2017-07-20T11:47:52.137Z,18.60
2017-07-20T11:50:19.669Z,19.10
2017-07-20T11:52:47.185Z,18.80
2017-07-20T11:55:14.732Z,18.70
2017-07-20T11:57:43.017Z,17.20
2017-07-20T12:00:10.532Z,17.20
2017-07-20T12:02:38.066Z,17.30
2017-07-20T12:05:05.591Z,17.30
2017-07-20T12:07:33.128Z,18.40
2017-07-20T12:10:00.654Z,18.80
2017-07-20T12:12:28.190Z,19.60
2017-07-20T12:14:55.713Z,19.60
2017-07-20T12:17:24.018Z,19.80
2017-07-20T12:19:51.538Z,19.80
2017-07-20T12:22:19.088Z,19.80
2017-07-20T12:24:46.605Z,21.00
2017-07-20T12:27:14.136Z,21.70
2017-07-20T12:29:41.669Z,21.90
2017-07-20T12:32:09.186Z,22.80
2017-07-20T12:34:36.728Z,20.50
2017-07-20T12:37:04.249Z,20.20
2017-07-20T12:39:32.571Z,20.30
2017-07-20T12:42:00.089Z,20.30
2017-07-20T12:44:28.393Z,20.30
2017-07-20T12:46:55.938Z,19.70
2017-07-20T12:49:23.459Z,20.40
2017-07-20T12:51:51.361Z,19.90
2017-07-20T12:54:18.876Z,19.00
2017-07-20T12:56:46.414Z,19.20
2017-07-20T12:59:14.745Z,19.30
2017-07-20T13:01:42.280Z,19.80
2017-07-20T13:04:09.797Z,19.20
2017-07-20T13:06:37.341Z,19.70
2017-07-20T13:09:04.862Z,20.00
2017-07-20T13:11:32.409Z,20.30
2017-07-20T13:13:59.930Z,20.20
2017-07-20T13:16:27.450Z,20.80
2017-07-20T13:18:55.773Z,20.30
2017-07-20T13:21:23.289Z,20.10
2017-07-20T13:23:51.585Z,19.90
2017-07-20T13:26:19.089Z,19.90
2017-07-20T13:28:46.628Z,20.00
2017-07-20T13:31:14.136Z,20.20
2017-07-20T13:33:42.438Z,21.80
2017-07-20T13:36:09.966Z,21.80
2017-07-20T13:38:38.278Z,22.70
2017-07-20T13:41:05.804Z,23.00
2017-07-20T13:43:33.324Z,22.90
2017-07-20T13:46:00.860Z,23.80
2017-07-20T13:48:28.374Z,24.50
2017-07-20T13:50:55.918Z,24.80
2017-07-20T13:53:23.430Z,25.70
2017-07-20T13:55:50.960Z,26.20
2017-07-20T13:58:19.237Z,26.60
2017-07-20T14:00:47.542Z,26.50
2017-07-20T14:03:15.054Z,26.50
2017-07-20T14:05:42.585Z,26.80
2017-07-20T14:08:10.097Z,26.60
2017-07-20T14:10:38.410Z,26.40
2017-07-20T14:13:05.929Z,26.40
2017-07-20T14:15:34.221Z,26.70
2017-07-20T14:18:01.761Z,26.70
2017-07-20T14:20:30.044Z,26.40
2017-07-20T14:22:58.349Z,25.60
2017-07-20T14:25:25.861Z,25.60
2017-07-20T14:27:53.393Z,25.30
2017-07-20T14:30:20.915Z,25.50
2017-07-20T14:32:48.458Z,26.20
2017-07-20T14:35:16.740Z,26.10
2017-07-20T14:37:44.273Z,26.10
2017-07-20T14:40:12.562Z,27.20
2017-07-20T14:42:40.877Z,27.30
2017-07-20T14:45:08.383Z,27.30
2017-07-20T14:47:35.905Z,27.60
2017-07-20T14:50:03.432Z,28.00
2017-07-20T14:52:30.963Z,28.20
2017-07-20T14:54:59.261Z,28.30
2017-07-20T14:57:26.784Z,28.50
2017-07-20T14:59:54.321Z,29.40
2017-07-20T15:02:21.839Z,29.30
2017-07-20T15:04:49.356Z,29.80
2017-07-20T15:07:16.876Z,30.10
2017-07-20T15:09:44.413Z,30.50
2017-07-20T15:12:11.922Z,30.40
2017-07-20T15:14:39.474Z,31.10
2017-07-20T15:17:06.999Z,31.20
2017-07-20T15:19:34.519Z,31.50
2017-07-20T15:22:02.092Z,32.60
2017-07-20T15:24:30.379Z,34.10
2017-07-20T15:26:57.922Z,34.10
2017-07-20T15:29:25.474Z,35.10
2017-07-20T15:31:53.804Z,36.40
2017-07-20T15:34:21.312Z,35.70
2017-07-20T15:36:48.836Z,36.40
2017-07-20T15:39:16.371Z,36.00
2017-07-20T15:41:43.887Z,35.60
2017-07-20T15:44:12.189Z,35.60
2017-07-20T15:46:39.709Z,35.50
2017-07-20T15:49:08.028Z,36.30
2017-07-20T15:51:35.549Z,36.20
2017-07-20T15:54:03.116Z,37.20
2017-07-20T15:56:31.449Z,38.40
2017-07-20T15:58:59.818Z,37.80
2017-07-20T16:01:27.351Z,37.80
2017-07-20T16:03:54.866Z,38.00
2017-07-20T16:06:22.402Z,37.80
2017-07-20T16:08:50.460Z,38.60
2017-07-20T16:11:17.994Z,39.20
2017-07-20T16:13:46.286Z,39.20
2017-07-20T16:16:13.817Z,39.20
2017-07-20T16:18:42.097Z,40.10
2017-07-20T16:21:10.401Z,40.30
2017-07-20T16:23:37.925Z,40.30
2017-07-20T16:26:06.225Z,44.40
2017-07-20T16:28:33.744Z,43.80
2017-07-20T16:31:01.298Z,46.80
2017-07-20T16:33:28.814Z,56.40
2017-07-20T16:35:56.337Z,56.70
2017-07-20T16:38:24.668Z,56.50
2017-07-20T16:40:52.205Z,56.30
2017-07-20T16:43:19.735Z,57.70
2017-07-20T16:45:47.292Z,58.20
2017-07-20T16:48:18.152Z,55.50
2017-07-20T16:50:45.689Z,59.00
2017-07-20T16:53:13.994Z,59.90
2017-07-20T16:55:41.516Z,59.80
2017-07-20T16:58:09.033Z,56.60
2017-07-20T17:00:36.668Z,55.90
2017-07-20T17:03:04.217Z,58.70
2017-07-20T17:05:31.757Z,58.60
2017-07-20T17:07:59.281Z,58.60
2017-07-20T17:10:26.969Z,57.70
2017-07-20T17:12:54.497Z,57.60
2017-07-20T17:15:22.154Z,58.30
2017-07-20T17:17:49.667Z,57.90
2017-07-20T17:20:17.969Z,58.00
2017-07-20T17:22:45.525Z,58.10
2017-07-20T17:25:13.087Z,58.70
2017-07-20T17:27:40.637Z,58.70
2017-07-20T17:30:08.211Z,60.80
2017-07-20T17:32:35.758Z,62.00
2017-07-20T17:35:03.277Z,61.50
2017-07-20T17:37:30.821Z,61.90
2017-07-20T17:39:58.338Z,61.20
2017-07-20T17:42:25.941Z,61.60
2017-07-20T17:44:53.469Z,61.50
2017-07-20T17:47:21.079Z,61.80
2017-07-20T17:49:49.363Z,61.70
2017-07-20T17:52:17.733Z,62.30
2017-07-20T17:54:45.402Z,62.30
2017-07-20T17:57:12.950Z,62.50
2017-07-20T17:59:40.520Z,62.30
2017-07-20T18:02:08.034Z,61.70
2017-07-20T18:04:35.589Z,61.90
2017-07-20T18:07:03.211Z,63.10
2017-07-20T18:09:30.812Z,63.10
2017-07-20T18:11:58.359Z,62.90
2017-07-20T18:14:25.906Z,62.90
2017-07-20T18:16:53.437Z,61.70
2017-07-20T18:19:21.716Z,61.50
2017-07-20T18:21:50.029Z,61.30
2017-07-20T18:24:20.937Z,61.30
2017-07-20T18:26:48.465Z,61.50
2017-07-20T18:29:16.003Z,62.10
2017-07-20T18:31:43.524Z,62.40
2017-07-20T18:34:11.084Z,62.10
2017-07-20T18:36:38.668Z,62.10
2017-07-20T18:39:06.184Z,62.00
2017-07-20T18:41:34.491Z,62.10
2017-07-20T18:44:02.002Z,62.10
2017-07-20T18:46:30.293Z,62.10
2017-07-20T18:48:58.597Z,62.60
2017-07-20T18:51:26.137Z,62.50
2017-07-20T18:53:53.674Z,63.10
2017-07-20T18:56:21.978Z,64.30
2017-07-20T18:58:49.523Z,63.30
2017-07-20T19:01:17.050Z,62.30
2017-07-20T19:03:44.573Z,62.70
2017-07-20T19:06:12.092Z,62.80
2017-07-20T19:08:39.849Z,63.60
2017-07-20T19:11:07.372Z,63.20
2017-07-20T19:13:34.951Z,65.30
2017-07-20T19:16:02.516Z,65.40
2017-07-20T19:18:30.828Z,66.80
2017-07-20T19:20:58.345Z,66.80
2017-07-20T19:23:25.880Z,67.00
2017-07-20T19:25:54.326Z,67.90
2017-07-20T19:28:21.864Z,68.20
2017-07-20T19:30:49.416Z,68.90
2017-07-20T19:33:17.703Z,71.70
2017-07-20T19:35:45.267Z,71.50
2017-07-20T19:38:13.557Z,72.00
2017-07-20T19:40:41.080Z,72.00
2017-07-20T19:43:09.381Z,72.10
2017-07-20T19:45:36.897Z,71.60
2017-07-20T19:48:04.445Z,71.80
2017-07-20T19:50:31.969Z,71.30
2017-07-20T19:52:59.508Z,71.50
2017-07-20T19:55:27.822Z,71.60
2017-07-20T19:57:55.345Z,71.50
2017-07-20T20:00:23.651Z,71.30
2017-07-20T20:02:51.192Z,71.30
2017-07-20T20:05:18.754Z,71.90
2017-07-20T20:07:46.283Z,72.50
2017-07-20T20:10:14.610Z,71.50
2017-07-20T20:12:42.134Z,71.50
2017-07-20T20:15:10.407Z,72.40
2017-07-20T20:17:38.704Z,73.20
2017-07-20T20:20:06.227Z,73.20
2017-07-20T20:22:34.543Z,73.40
2017-07-20T20:25:02.071Z,72.60
2017-07-20T20:27:30.373Z,74.20
2017-07-20T20:29:57.969Z,74.20
2017-07-20T20:32:25.500Z,75.20
2017-07-20T20:34:53.013Z,76.10
2017-07-20T20:37:20.565Z,76.40
2017-07-20T20:39:48.076Z,77.10
2017-07-20T20:42:15.617Z,77.30
2017-07-20T20:44:43.133Z,78.00
2017-07-20T20:47:10.690Z,79.10
2017-07-20T20:49:38.202Z,80.60
2017-07-20T20:52:05.736Z,80.80
2017-07-20T20:54:34.065Z,79.70
2017-07-20T20:57:01.619Z,79.70
2017-07-20T20:59:29.132Z,79.70
2017-07-20T21:01:56.697Z,80.40
2017-07-20T21:04:24.217Z,79.30
2017-07-20T21:06:51.761Z,78.90
2017-07-20T21:09:19.285Z,79.90
2017-07-20T21:11:46.822Z,79.80
2017-07-20T21:14:15.122Z,81.30
2017-07-20T21:16:42.684Z,81.30
2017-07-20T21:19:10.260Z,81.40
2017-07-20T21:21:37.865Z,81.90
2017-07-20T21:24:06.255Z,83.80
2017-07-20T21:26:37.483Z,83.00
2017-07-20T21:29:05.093Z,83.80
2017-07-20T21:31:32.783Z,83.80
2017-07-20T21:34:00.419Z,83.80
2017-07-20T21:36:28.188Z,83.70
2017-07-20T21:38:55.780Z,83.70
2017-07-20T21:41:23.410Z,83.70
2017-07-20T21:43:51.051Z,83.70
2017-07-20T21:46:18.668Z,83.60
2017-07-20T21:48:46.268Z,83.50
2017-07-20T21:51:13.879Z,83.50
2017-07-20T21:53:41.498Z,83.50
2017-07-20T21:56:09.311Z,83.90
2017-07-20T21:58:36.936Z,84.10
2017-07-20T22:01:04.535Z,84.60
2017-07-20T22:03:32.163Z,84.60
2017-07-20T22:05:59.763Z,84.60
2017-07-20T22:08:28.228Z,84.70
2017-07-20T22:10:55.814Z,84.70
2017-07-20T22:13:23.432Z,84.20
2017-07-20T22:15:51.057Z,83.50
2017-07-20T22:18:18.682Z,83.90
2017-07-20T22:20:47.288Z,83.80
2017-07-20T22:23:14.914Z,84.40
2017-07-20T22:25:42.552Z,83.10
2017-07-20T22:28:13.075Z,83.10
2017-07-20T22:30:41.162Z,83.10
2017-07-20T22:33:08.768Z,83.10
2017-07-20T22:35:36.366Z,83.10
2017-07-20T22:38:03.988Z,83.00
2017-07-20T22:40:31.630Z,83.00
2017-07-20T22:43:00.039Z,83.70
2017-07-20T22:45:27.674Z,83.00
2017-07-20T22:47:55.612Z,83.00
2017-07-20T22:50:23.293Z,83.40
2017-07-20T22:52:50.899Z,83.20
2017-07-20T22:55:18.528Z,83.30
2017-07-20T22:57:46.894Z,83.60
2017-07-20T23:00:15.285Z,84.30
2017-07-20T23:02:43.674Z,84.00
2017-07-20T23:05:11.282Z,84.00
2017-07-20T23:07:38.914Z,84.20
2017-07-20T23:10:06.498Z,84.30
2017-07-20T23:12:34.148Z,84.50
2017-07-20T23:15:01.764Z,84.70
2017-07-20T23:17:29.380Z,85.50
2017-07-20T23:19:56.990Z,85.10
2017-07-20T23:22:24.543Z,85.20
2017-07-20T23:24:52.080Z,85.30
2017-07-20T23:27:19.629Z,85.50
2017-07-20T23:29:47.155Z,85.90
2017-07-20T23:32:14.698Z,85.70
2017-07-20T23:34:42.230Z,86.00
2017-07-20T23:37:09.744Z,86.00
2017-07-20T23:39:37.288Z,86.50
2017-07-20T23:42:04.813Z,86.70
2017-07-20T23:44:32.343Z,87.00
2017-07-20T23:46:59.879Z,87.30
2017-07-20T23:49:27.425Z,87.00
2017-07-20T23:51:55.061Z,86.90
2017-07-20T23:54:23.356Z,86.60
2017-07-20T23:56:50.892Z,86.60
2017-07-20T23:59:18.413Z,86.50
